Saltillo, Texas
Current Conditions -  °F | °C
As of 3:15 AM on Monday 22 Dec 2014 (Local Time) from KSLR Reporting Station
Overcast Overcast  
Wind Chill: 53°   Ceiling: 2100
Heat Index: 53°   Visibility: 10mi
Dew Point: 49°   Wind: 12mph
Humidity: 87%   Direction: 180°S
Pressure: 29.71"   Gusts: NA
Location:  33.18°N, 95.33°W
Report Text: KSLR 220915Z AUTO 18010KT 10SM BKN021 OVC026 12/10 A2971 RMK AO2 T01180097
Loading
Personal Weather Stations






























Interactive Weather Map New forecast layout! Learn more

10-Day Weather Forecast

Advertisements
Track Severe Weather on mobile